sensor_id;sensor_type;location;lat;lon;timestamp;temperature;humidity
16517;DHT22;8371;52.272;9.746;2022-12-20T00:00:51;9.10;80.10
16517;DHT22;8371;52.272;9.746;2022-12-20T00:03:17;9.10;80.10
16517;DHT22;8371;52.272;9.746;2022-12-20T00:05:43;9.10;80.10
16517;DHT22;8371;52.272;9.746;2022-12-20T00:08:09;9.10;80.10
16517;DHT22;8371;52.272;9.746;2022-12-20T00:10:36;9.10;80.20
16517;DHT22;8371;52.272;9.746;2022-12-20T00:13:02;9.10;80.10
16517;DHT22;8371;52.272;9.746;2022-12-20T00:15:28;9.10;80.10
16517;DHT22;8371;52.272;9.746;2022-12-20T00:17:56;9.10;80.10
16517;DHT22;8371;52.272;9.746;2022-12-20T00:20:22;9.10;80.10
16517;DHT22;8371;52.272;9.746;2022-12-20T00:22:48;9.10;80.50
16517;DHT22;8371;52.272;9.746;2022-12-20T00:25:14;9.00;80.10
16517;DHT22;8371;52.272;9.746;2022-12-20T00:27:39;9.00;80.10
16517;DHT22;8371;52.272;9.746;2022-12-20T00:30:06;9.00;80.00
16517;DHT22;8371;52.272;9.746;2022-12-20T00:32:32;9.00;80.00
16517;DHT22;8371;52.272;9.746;2022-12-20T00:34:57;8.90;80.00
16517;DHT22;8371;52.272;9.746;2022-12-20T00:37:23;8.90;80.00
16517;DHT22;8371;52.272;9.746;2022-12-20T00:39:49;8.90;80.20
16517;DHT22;8371;52.272;9.746;2022-12-20T00:42:15;8.90;80.30
16517;DHT22;8371;52.272;9.746;2022-12-20T00:44:40;8.90;80.40
16517;DHT22;8371;52.272;9.746;2022-12-20T00:47:06;8.90;80.60
16517;DHT22;8371;52.272;9.746;2022-12-20T00:49:32;8.90;80.70
16517;DHT22;8371;52.272;9.746;2022-12-20T00:51:57;8.90;80.80
16517;DHT22;8371;52.272;9.746;2022-12-20T00:54:23;9.00;80.80
16517;DHT22;8371;52.272;9.746;2022-12-20T00:56:49;9.00;80.80
16517;DHT22;8371;52.272;9.746;2022-12-20T00:59:14;9.00;80.80
16517;DHT22;8371;52.272;9.746;2022-12-20T01:01:40;9.00;80.80
16517;DHT22;8371;52.272;9.746;2022-12-20T01:04:06;9.00;80.80
16517;DHT22;8371;52.272;9.746;2022-12-20T01:06:32;9.00;80.80
16517;DHT22;8371;52.272;9.746;2022-12-20T01:08:59;9.00;80.80
16517;DHT22;8371;52.272;9.746;2022-12-20T01:11:28;9.00;80.70
16517;DHT22;8371;52.272;9.746;2022-12-20T01:14:06;9.00;80.80
16517;DHT22;8371;52.272;9.746;2022-12-20T01:16:36;9.00;80.90
16517;DHT22;8371;52.272;9.746;2022-12-20T01:18:59;9.00;80.80
16517;DHT22;8371;52.272;9.746;2022-12-20T01:21:26;9.00;80.80
16517;DHT22;8371;52.272;9.746;2022-12-20T01:23:53;9.00;80.70
16517;DHT22;8371;52.272;9.746;2022-12-20T01:26:21;8.90;80.70
16517;DHT22;8371;52.272;9.746;2022-12-20T01:28:50;8.90;80.70
16517;DHT22;8371;52.272;9.746;2022-12-20T01:31:17;9.00;80.80
16517;DHT22;8371;52.272;9.746;2022-12-20T01:33:44;8.90;80.90
16517;DHT22;8371;52.272;9.746;2022-12-20T01:36:12;8.90;80.90
16517;DHT22;8371;52.272;9.746;2022-12-20T01:38:38;8.90;81.00
16517;DHT22;8371;52.272;9.746;2022-12-20T01:41:04;9.00;81.10
16517;DHT22;8371;52.272;9.746;2022-12-20T01:43:45;9.00;81.30
16517;DHT22;8371;52.272;9.746;2022-12-20T01:46:11;9.00;81.30
16517;DHT22;8371;52.272;9.746;2022-12-20T01:48:38;9.00;81.30
16517;DHT22;8371;52.272;9.746;2022-12-20T01:51:05;9.00;81.40
16517;DHT22;8371;52.272;9.746;2022-12-20T01:53:31;9.10;81.60
16517;DHT22;8371;52.272;9.746;2022-12-20T01:55:59;9.10;81.70
16517;DHT22;8371;52.272;9.746;2022-12-20T01:58:26;9.10;81.80
16517;DHT22;8371;52.272;9.746;2022-12-20T02:00:52;9.20;82.00
16517;DHT22;8371;52.272;9.746;2022-12-20T02:03:18;9.30;82.20
16517;DHT22;8371;52.272;9.746;2022-12-20T02:05:45;9.30;82.70
16517;DHT22;8371;52.272;9.746;2022-12-20T02:08:13;9.40;82.30
16517;DHT22;8371;52.272;9.746;2022-12-20T02:10:57;9.40;82.30
16517;DHT22;8371;52.272;9.746;2022-12-20T02:13:30;9.50;82.30
16517;DHT22;8371;52.272;9.746;2022-12-20T02:15:55;9.60;82.30
16517;DHT22;8371;52.272;9.746;2022-12-20T02:18:26;9.70;82.40
16517;DHT22;8371;52.272;9.746;2022-12-20T02:27:24;9.80;82.20
16517;DHT22;8371;52.272;9.746;2022-12-20T02:30:05;10.00;82.20
16517;DHT22;8371;52.272;9.746;2022-12-20T02:32:37;10.00;82.20
16517;DHT22;8371;52.272;9.746;2022-12-20T02:35:06;10.00;82.10
16517;DHT22;8371;52.272;9.746;2022-12-20T02:37:32;10.10;82.10
16517;DHT22;8371;52.272;9.746;2022-12-20T02:39:58;10.10;82.10
16517;DHT22;8371;52.272;9.746;2022-12-20T02:42:25;10.20;81.90
16517;DHT22;8371;52.272;9.746;2022-12-20T02:44:58;10.20;81.70
16517;DHT22;8371;52.272;9.746;2022-12-20T02:47:46;10.30;82.40
16517;DHT22;8371;52.272;9.746;2022-12-20T02:50:12;10.30;81.60
16517;DHT22;8371;52.272;9.746;2022-12-20T02:52:39;10.30;81.40
16517;DHT22;8371;52.272;9.746;2022-12-20T02:55:05;10.30;81.30
16517;DHT22;8371;52.272;9.746;2022-12-20T02:57:48;10.30;81.30
16517;DHT22;8371;52.272;9.746;2022-12-20T03:00:16;10.40;81.20
16517;DHT22;8371;52.272;9.746;2022-12-20T03:02:43;10.40;81.20
16517;DHT22;8371;52.272;9.746;2022-12-20T03:05:28;10.40;81.20
16517;DHT22;8371;52.272;9.746;2022-12-20T03:07:54;10.40;81.20
16517;DHT22;8371;52.272;9.746;2022-12-20T03:10:21;10.40;81.20
16517;DHT22;8371;52.272;9.746;2022-12-20T03:12:47;10.40;81.30
16517;DHT22;8371;52.272;9.746;2022-12-20T03:15:33;10.40;81.10
16517;DHT22;8371;52.272;9.746;2022-12-20T03:17:58;10.50;81.10
16517;DHT22;8371;52.272;9.746;2022-12-20T03:20:24;10.50;81.00
16517;DHT22;8371;52.272;9.746;2022-12-20T03:22:50;10.50;80.90
16517;DHT22;8371;52.272;9.746;2022-12-20T03:25:16;10.50;80.80
16517;DHT22;8371;52.272;9.746;2022-12-20T03:27:41;10.50;80.80
16517;DHT22;8371;52.272;9.746;2022-12-20T03:30:07;10.50;80.70
16517;DHT22;8371;52.272;9.746;2022-12-20T03:32:33;10.40;80.70
16517;DHT22;8371;52.272;9.746;2022-12-20T03:34:59;10.50;80.80
16517;DHT22;8371;52.272;9.746;2022-12-20T03:40:13;10.40;80.70
16517;DHT22;8371;52.272;9.746;2022-12-20T03:42:38;10.40;80.60
16517;DHT22;8371;52.272;9.746;2022-12-20T03:45:05;10.40;80.70
16517;DHT22;8371;52.272;9.746;2022-12-20T03:47:31;10.40;80.80
16517;DHT22;8371;52.272;9.746;2022-12-20T03:49:57;10.40;80.80
16517;DHT22;8371;52.272;9.746;2022-12-20T03:52:23;10.40;80.80
16517;DHT22;8371;52.272;9.746;2022-12-20T03:54:48;10.40;80.80
16517;DHT22;8371;52.272;9.746;2022-12-20T03:57:14;10.40;80.70
16517;DHT22;8371;52.272;9.746;2022-12-20T03:59:40;10.50;80.90
16517;DHT22;8371;52.272;9.746;2022-12-20T04:02:07;10.40;80.80
16517;DHT22;8371;52.272;9.746;2022-12-20T04:04:33;10.40;80.80
16517;DHT22;8371;52.272;9.746;2022-12-20T04:06:59;10.40;80.80
16517;DHT22;8371;52.272;9.746;2022-12-20T04:09:25;10.50;80.90
16517;DHT22;8371;52.272;9.746;2022-12-20T04:11:51;10.50;80.90
16517;DHT22;8371;52.272;9.746;2022-12-20T04:14:16;10.50;80.90
16517;DHT22;8371;52.272;9.746;2022-12-20T04:16:42;10.50;80.90
16517;DHT22;8371;52.272;9.746;2022-12-20T04:19:08;10.60;81.00
16517;DHT22;8371;52.272;9.746;2022-12-20T04:21:35;10.60;80.90
16517;DHT22;8371;52.272;9.746;2022-12-20T04:24:01;10.60;80.90
16517;DHT22;8371;52.272;9.746;2022-12-20T04:26:28;10.60;80.80
16517;DHT22;8371;52.272;9.746;2022-12-20T04:28:54;10.60;80.70
16517;DHT22;8371;52.272;9.746;2022-12-20T04:31:20;10.60;80.70
16517;DHT22;8371;52.272;9.746;2022-12-20T04:33:46;10.60;81.40
16517;DHT22;8371;52.272;9.746;2022-12-20T04:36:13;10.60;80.60
16517;DHT22;8371;52.272;9.746;2022-12-20T04:38:39;10.70;80.70
16517;DHT22;8371;52.272;9.746;2022-12-20T04:41:05;10.70;80.50
16517;DHT22;8371;52.272;9.746;2022-12-20T04:43:31;10.70;80.60
16517;DHT22;8371;52.272;9.746;2022-12-20T04:45:57;10.70;80.60
16517;DHT22;8371;52.272;9.746;2022-12-20T04:48:25;10.70;80.50
16517;DHT22;8371;52.272;9.746;2022-12-20T04:50:55;10.70;80.80
16517;DHT22;8371;52.272;9.746;2022-12-20T04:53:22;10.70;80.50
16517;DHT22;8371;52.272;9.746;2022-12-20T04:56:07;10.70;80.50
16517;DHT22;8371;52.272;9.746;2022-12-20T04:58:33;10.70;80.50
16517;DHT22;8371;52.272;9.746;2022-12-20T05:00:59;10.70;80.60
16517;DHT22;8371;52.272;9.746;2022-12-20T05:03:25;10.70;80.50
16517;DHT22;8371;52.272;9.746;2022-12-20T05:05:51;10.80;80.80
16517;DHT22;8371;52.272;9.746;2022-12-20T05:08:17;10.80;80.60
16517;DHT22;8371;52.272;9.746;2022-12-20T05:10:44;10.80;80.50
16517;DHT22;8371;52.272;9.746;2022-12-20T05:13:10;10.80;80.60
16517;DHT22;8371;52.272;9.746;2022-12-20T05:15:36;10.80;80.50
16517;DHT22;8371;52.272;9.746;2022-12-20T05:18:02;10.80;80.70
16517;DHT22;8371;52.272;9.746;2022-12-20T05:20:29;10.80;80.50
16517;DHT22;8371;52.272;9.746;2022-12-20T05:22:56;10.90;80.50
16517;DHT22;8371;52.272;9.746;2022-12-20T05:25:43;10.90;80.50
16517;DHT22;8371;52.272;9.746;2022-12-20T05:28:28;10.90;80.50
16517;DHT22;8371;52.272;9.746;2022-12-20T05:30:54;10.80;80.40
16517;DHT22;8371;52.272;9.746;2022-12-20T05:33:20;10.90;80.40
16517;DHT22;8371;52.272;9.746;2022-12-20T05:35:46;10.80;80.40
16517;DHT22;8371;52.272;9.746;2022-12-20T05:38:12;10.90;80.40
16517;DHT22;8371;52.272;9.746;2022-12-20T05:40:38;10.90;80.40
16517;DHT22;8371;52.272;9.746;2022-12-20T05:43:05;10.90;80.40
16517;DHT22;8371;52.272;9.746;2022-12-20T05:45:31;10.90;80.40
16517;DHT22;8371;52.272;9.746;2022-12-20T05:47:57;10.80;80.30
16517;DHT22;8371;52.272;9.746;2022-12-20T05:50:24;10.80;80.40
16517;DHT22;8371;52.272;9.746;2022-12-20T05:52:50;10.80;80.40
16517;DHT22;8371;52.272;9.746;2022-12-20T05:55:15;10.80;80.50
16517;DHT22;8371;52.272;9.746;2022-12-20T05:57:41;10.80;80.40
16517;DHT22;8371;52.272;9.746;2022-12-20T06:00:09;10.80;80.50
16517;DHT22;8371;52.272;9.746;2022-12-20T06:02:35;10.70;80.50
16517;DHT22;8371;52.272;9.746;2022-12-20T06:05:01;10.80;80.50
16517;DHT22;8371;52.272;9.746;2022-12-20T06:07:28;10.80;80.70
16517;DHT22;8371;52.272;9.746;2022-12-20T06:09:54;10.80;80.70
16517;DHT22;8371;52.272;9.746;2022-12-20T06:12:20;10.70;80.70
16517;DHT22;8371;52.272;9.746;2022-12-20T06:14:46;10.80;80.70
16517;DHT22;8371;52.272;9.746;2022-12-20T06:17:12;10.70;80.70
16517;DHT22;8371;52.272;9.746;2022-12-20T06:19:38;10.70;80.70
16517;DHT22;8371;52.272;9.746;2022-12-20T06:22:07;10.80;81.50
16517;DHT22;8371;52.272;9.746;2022-12-20T06:24:34;10.80;80.70
16517;DHT22;8371;52.272;9.746;2022-12-20T06:27:00;10.80;80.70
16517;DHT22;8371;52.272;9.746;2022-12-20T06:29:27;10.80;80.80
16517;DHT22;8371;52.272;9.746;2022-12-20T06:31:53;10.80;80.70
16517;DHT22;8371;52.272;9.746;2022-12-20T06:34:19;10.80;80.70
16517;DHT22;8371;52.272;9.746;2022-12-20T06:36:46;10.70;80.60
16517;DHT22;8371;52.272;9.746;2022-12-20T06:39:12;10.80;80.70
16517;DHT22;8371;52.272;9.746;2022-12-20T06:41:39;10.80;80.70
16517;DHT22;8371;52.272;9.746;2022-12-20T06:44:05;10.80;80.70
16517;DHT22;8371;52.272;9.746;2022-12-20T06:46:30;10.70;80.70
16517;DHT22;8371;52.272;9.746;2022-12-20T06:48:56;10.80;80.70
16517;DHT22;8371;52.272;9.746;2022-12-20T06:51:22;10.80;80.80
16517;DHT22;8371;52.272;9.746;2022-12-20T06:53:48;10.80;80.70
16517;DHT22;8371;52.272;9.746;2022-12-20T06:56:14;10.80;80.90
16517;DHT22;8371;52.272;9.746;2022-12-20T06:58:40;10.80;80.90
16517;DHT22;8371;52.272;9.746;2022-12-20T07:01:05;10.70;80.90
16517;DHT22;8371;52.272;9.746;2022-12-20T07:03:31;10.80;81.00
16517;DHT22;8371;52.272;9.746;2022-12-20T07:05:57;10.80;80.90
16517;DHT22;8371;52.272;9.746;2022-12-20T07:08:23;10.80;80.90
16517;DHT22;8371;52.272;9.746;2022-12-20T07:10:50;10.80;81.00
16517;DHT22;8371;52.272;9.746;2022-12-20T07:13:18;10.90;81.00
16517;DHT22;8371;52.272;9.746;2022-12-20T07:15:44;10.90;81.10
16517;DHT22;8371;52.272;9.746;2022-12-20T07:18:10;10.90;81.30
16517;DHT22;8371;52.272;9.746;2022-12-20T07:20:35;10.90;81.20
16517;DHT22;8371;52.272;9.746;2022-12-20T07:23:01;11.00;81.30
16517;DHT22;8371;52.272;9.746;2022-12-20T07:25:29;11.00;82.00
16517;DHT22;8371;52.272;9.746;2022-12-20T07:27:54;11.00;81.30
16517;DHT22;8371;52.272;9.746;2022-12-20T07:30:20;11.00;81.20
16517;DHT22;8371;52.272;9.746;2022-12-20T07:32:46;11.00;81.20
16517;DHT22;8371;52.272;9.746;2022-12-20T07:35:13;11.10;81.20
16517;DHT22;8371;52.272;9.746;2022-12-20T07:37:39;11.10;81.20
16517;DHT22;8371;52.272;9.746;2022-12-20T07:40:06;11.10;81.20
16517;DHT22;8371;52.272;9.746;2022-12-20T07:42:32;11.10;81.00
16517;DHT22;8371;52.272;9.746;2022-12-20T07:44:57;11.10;81.00
16517;DHT22;8371;52.272;9.746;2022-12-20T07:47:23;11.20;81.00
16517;DHT22;8371;52.272;9.746;2022-12-20T07:49:49;11.20;81.00
16517;DHT22;8371;52.272;9.746;2022-12-20T07:52:16;11.20;81.00
16517;DHT22;8371;52.272;9.746;2022-12-20T07:54:46;11.20;81.10
16517;DHT22;8371;52.272;9.746;2022-12-20T07:57:43;11.20;81.10
16517;DHT22;8371;52.272;9.746;2022-12-20T07:59:51;11.20;81.10
16517;DHT22;8371;52.272;9.746;2022-12-20T08:02:21;11.20;81.00
16517;DHT22;8371;52.272;9.746;2022-12-20T08:04:48;11.20;81.10
16517;DHT22;8371;52.272;9.746;2022-12-20T08:07:15;11.20;81.00
16517;DHT22;8371;52.272;9.746;2022-12-20T08:09:43;11.10;80.80
16517;DHT22;8371;52.272;9.746;2022-12-20T08:12:11;11.20;80.80
16517;DHT22;8371;52.272;9.746;2022-12-20T08:14:38;11.20;80.80
16517;DHT22;8371;52.272;9.746;2022-12-20T08:17:04;11.20;80.80
16517;DHT22;8371;52.272;9.746;2022-12-20T08:19:30;11.20;81.70
16517;DHT22;8371;52.272;9.746;2022-12-20T08:21:55;11.20;80.80
16517;DHT22;8371;52.272;9.746;2022-12-20T08:24:21;11.20;80.90
16517;DHT22;8371;52.272;9.746;2022-12-20T08:26:47;11.30;80.90
16517;DHT22;8371;52.272;9.746;2022-12-20T08:29:12;11.30;80.90
16517;DHT22;8371;52.272;9.746;2022-12-20T08:31:39;11.30;80.90
16517;DHT22;8371;52.272;9.746;2022-12-20T08:34:07;11.30;80.90
16517;DHT22;8371;52.272;9.746;2022-12-20T08:36:34;11.30;80.90
16517;DHT22;8371;52.272;9.746;2022-12-20T08:39:04;11.30;80.90
16517;DHT22;8371;52.272;9.746;2022-12-20T08:41:30;11.30;80.90
16517;DHT22;8371;52.272;9.746;2022-12-20T08:43:56;11.30;80.90
16517;DHT22;8371;52.272;9.746;2022-12-20T08:46:22;11.40;81.00
16517;DHT22;8371;52.272;9.746;2022-12-20T08:48:47;11.40;81.00
16517;DHT22;8371;52.272;9.746;2022-12-20T08:51:13;11.40;81.00
16517;DHT22;8371;52.272;9.746;2022-12-20T08:53:39;11.40;81.00
16517;DHT22;8371;52.272;9.746;2022-12-20T08:56:07;11.50;81.10
16517;DHT22;8371;52.272;9.746;2022-12-20T08:58:34;11.50;81.10
16517;DHT22;8371;52.272;9.746;2022-12-20T09:01:02;11.50;81.10
16517;DHT22;8371;52.272;9.746;2022-12-20T09:03:29;11.60;81.20
16517;DHT22;8371;52.272;9.746;2022-12-20T09:05:57;11.60;81.20
16517;DHT22;8371;52.272;9.746;2022-12-20T09:08:23;11.70;81.20
16517;DHT22;8371;52.272;9.746;2022-12-20T09:10:48;11.70;81.10
16517;DHT22;8371;52.272;9.746;2022-12-20T09:13:14;11.70;81.10
16517;DHT22;8371;52.272;9.746;2022-12-20T09:15:40;11.80;81.10
16517;DHT22;8371;52.272;9.746;2022-12-20T09:18:06;11.90;81.00
16517;DHT22;8371;52.272;9.746;2022-12-20T09:20:32;11.90;80.90
16517;DHT22;8371;52.272;9.746;2022-12-20T09:22:58;12.00;81.00
16517;DHT22;8371;52.272;9.746;2022-12-20T09:25:25;12.00;80.90
16517;DHT22;8371;52.272;9.746;2022-12-20T09:27:52;12.10;80.80
16517;DHT22;8371;52.272;9.746;2022-12-20T09:30:19;12.10;80.80
16517;DHT22;8371;52.272;9.746;2022-12-20T09:32:45;12.20;80.70
16517;DHT22;8371;52.272;9.746;2022-12-20T09:35:11;12.20;80.60
16517;DHT22;8371;52.272;9.746;2022-12-20T09:37:36;12.30;80.60
16517;DHT22;8371;52.272;9.746;2022-12-20T09:40:02;12.30;80.50
16517;DHT22;8371;52.272;9.746;2022-12-20T09:42:29;12.40;80.60
16517;DHT22;8371;52.272;9.746;2022-12-20T09:45:02;12.40;80.50
16517;DHT22;8371;52.272;9.746;2022-12-20T09:47:27;12.50;80.40
16517;DHT22;8371;52.272;9.746;2022-12-20T09:49:55;12.50;80.20
16517;DHT22;8371;52.272;9.746;2022-12-20T09:52:25;12.50;80.10
16517;DHT22;8371;52.272;9.746;2022-12-20T09:55:08;12.60;80.20
16517;DHT22;8371;52.272;9.746;2022-12-20T10:00:16;12.70;80.00
16517;DHT22;8371;52.272;9.746;2022-12-20T10:02:42;12.70;80.00
16517;DHT22;8371;52.272;9.746;2022-12-20T10:05:38;12.70;79.90
16517;DHT22;8371;52.272;9.746;2022-12-20T10:08:08;12.80;80.00
16517;DHT22;8371;52.272;9.746;2022-12-20T10:11:00;12.80;79.80
16517;DHT22;8371;52.272;9.746;2022-12-20T10:13:42;12.80;79.80
16517;DHT22;8371;52.272;9.746;2022-12-20T10:19:03;12.90;79.70
16517;DHT22;8371;52.272;9.746;2022-12-20T10:24:09;13.00;79.80
16517;DHT22;8371;52.272;9.746;2022-12-20T10:26:32;13.10;79.80
16517;DHT22;8371;52.272;9.746;2022-12-20T10:28:58;13.10;79.70
16517;DHT22;8371;52.272;9.746;2022-12-20T10:31:24;13.20;79.70
16517;DHT22;8371;52.272;9.746;2022-12-20T10:33:49;13.30;79.70
16517;DHT22;8371;52.272;9.746;2022-12-20T10:36:33;13.40;79.70
16517;DHT22;8371;52.272;9.746;2022-12-20T10:39:01;13.40;79.60
16517;DHT22;8371;52.272;9.746;2022-12-20T10:44:23;13.60;79.50
16517;DHT22;8371;52.272;9.746;2022-12-20T10:49:31;13.80;79.30
16517;DHT22;8371;52.272;9.746;2022-12-20T10:52:09;13.90;79.40
16517;DHT22;8371;52.272;9.746;2022-12-20T10:59:58;14.10;78.70
16517;DHT22;8371;52.272;9.746;2022-12-20T11:02:33;14.20;78.50
16517;DHT22;8371;52.272;9.746;2022-12-20T11:07:51;14.30;78.20
16517;DHT22;8371;52.272;9.746;2022-12-20T11:10:21;14.30;78.00
16517;DHT22;8371;52.272;9.746;2022-12-20T11:13:00;14.30;77.90
16517;DHT22;8371;52.272;9.746;2022-12-20T11:15:26;14.30;77.70
16517;DHT22;8371;52.272;9.746;2022-12-20T11:18:02;14.40;77.70
16517;DHT22;8371;52.272;9.746;2022-12-20T11:23:22;14.40;77.60
16517;DHT22;8371;52.272;9.746;2022-12-20T11:26:11;14.50;77.80
16517;DHT22;8371;52.272;9.746;2022-12-20T11:31:16;14.60;77.80
16517;DHT22;8371;52.272;9.746;2022-12-20T11:33:51;14.60;77.80
16517;DHT22;8371;52.272;9.746;2022-12-20T11:36:32;14.60;77.70
16517;DHT22;8371;52.272;9.746;2022-12-20T11:39:04;14.70;77.60
16517;DHT22;8371;52.272;9.746;2022-12-20T11:44:45;14.80;77.30
16517;DHT22;8371;52.272;9.746;2022-12-20T11:52:52;14.90;76.80
16517;DHT22;8371;52.272;9.746;2022-12-20T11:55:24;14.90;76.60
16517;DHT22;8371;52.272;9.746;2022-12-20T11:58:45;14.90;76.50
16517;DHT22;8371;52.272;9.746;2022-12-20T12:00:26;14.90;76.50
16517;DHT22;8371;52.272;9.746;2022-12-20T12:05:44;15.00;76.30
16517;DHT22;8371;52.272;9.746;2022-12-20T12:08:16;15.00;76.20
16517;DHT22;8371;52.272;9.746;2022-12-20T12:10:50;14.90;76.10
16517;DHT22;8371;52.272;9.746;2022-12-20T12:13:16;14.90;76.00
16517;DHT22;8371;52.272;9.746;2022-12-20T12:15:52;14.90;76.00
16517;DHT22;8371;52.272;9.746;2022-12-20T12:18:20;14.90;76.00
16517;DHT22;8371;52.272;9.746;2022-12-20T12:21:02;14.90;75.90
16517;DHT22;8371;52.272;9.746;2022-12-20T12:26:20;14.90;75.90
16517;DHT22;8371;52.272;9.746;2022-12-20T12:28:50;14.90;76.10
16517;DHT22;8371;52.272;9.746;2022-12-20T12:31:20;14.90;76.00
16517;DHT22;8371;52.272;9.746;2022-12-20T12:33:49;14.80;76.00
16517;DHT22;8371;52.272;9.746;2022-12-20T12:36:27;14.90;76.20
16517;DHT22;8371;52.272;9.746;2022-12-20T12:47:16;15.00;76.00
16517;DHT22;8371;52.272;9.746;2022-12-20T12:49:46;15.00;76.00
16517;DHT22;8371;52.272;9.746;2022-12-20T12:52:27;15.00;75.90
16517;DHT22;8371;52.272;9.746;2022-12-20T12:54:53;15.00;75.80
16517;DHT22;8371;52.272;9.746;2022-12-20T12:57:19;15.10;75.80
16517;DHT22;8371;52.272;9.746;2022-12-20T12:59:47;15.10;75.70
16517;DHT22;8371;52.272;9.746;2022-12-20T13:17:51;15.10;74.70
16517;DHT22;8371;52.272;9.746;2022-12-20T13:20:21;15.10;74.70
16517;DHT22;8371;52.272;9.746;2022-12-20T13:33:22;15.10;75.00
16517;DHT22;8371;52.272;9.746;2022-12-20T13:36:02;15.20;74.90
16517;DHT22;8371;52.272;9.746;2022-12-20T13:38:36;15.20;74.80
16517;DHT22;8371;52.272;9.746;2022-12-20T13:43:50;15.20;74.60
16517;DHT22;8371;52.272;9.746;2022-12-20T13:46:31;15.20;74.50
16517;DHT22;8371;52.272;9.746;2022-12-20T13:49:02;15.20;74.40
16517;DHT22;8371;52.272;9.746;2022-12-20T13:51:29;15.10;74.10
16517;DHT22;8371;52.272;9.746;2022-12-20T13:54:03;15.10;74.10
16517;DHT22;8371;52.272;9.746;2022-12-20T13:56:45;15.10;74.00
16517;DHT22;8371;52.272;9.746;2022-12-20T13:59:22;15.00;73.90
16517;DHT22;8371;52.272;9.746;2022-12-20T14:01:53;15.00;73.90
16517;DHT22;8371;52.272;9.746;2022-12-20T14:04:20;15.00;73.90
16517;DHT22;8371;52.272;9.746;2022-12-20T14:06:58;14.90;73.80
16517;DHT22;8371;52.272;9.746;2022-12-20T14:12:05;14.80;73.80
16517;DHT22;8371;52.272;9.746;2022-12-20T14:14:43;14.80;73.80
16517;DHT22;8371;52.272;9.746;2022-12-20T14:17:30;14.60;73.80
16517;DHT22;8371;52.272;9.746;2022-12-20T14:20:14;14.60;73.70
16517;DHT22;8371;52.272;9.746;2022-12-20T14:23:02;14.50;73.60
16517;DHT22;8371;52.272;9.746;2022-12-20T14:25:53;14.40;73.70
16517;DHT22;8371;52.272;9.746;2022-12-20T14:28:37;14.40;73.70
16517;DHT22;8371;52.272;9.746;2022-12-20T14:31:05;14.40;73.80
16517;DHT22;8371;52.272;9.746;2022-12-20T14:33:36;14.30;74.00
16517;DHT22;8371;52.272;9.746;2022-12-20T14:38:49;14.20;74.10
16517;DHT22;8371;52.272;9.746;2022-12-20T14:41:35;14.10;74.10
16517;DHT22;8371;52.272;9.746;2022-12-20T14:46:34;14.00;74.10
16517;DHT22;8371;52.272;9.746;2022-12-20T14:49:18;14.00;74.10
16517;DHT22;8371;52.272;9.746;2022-12-20T14:51:46;13.90;74.20
16517;DHT22;8371;52.272;9.746;2022-12-20T14:54:21;13.90;74.20
16517;DHT22;8371;52.272;9.746;2022-12-20T14:56:48;13.90;74.40
16517;DHT22;8371;52.272;9.746;2022-12-20T14:59:22;13.80;74.30
16517;DHT22;8371;52.272;9.746;2022-12-20T15:01:51;13.70;74.30
16517;DHT22;8371;52.272;9.746;2022-12-20T15:04:24;13.70;74.30
16517;DHT22;8371;52.272;9.746;2022-12-20T15:06:50;13.60;74.30
16517;DHT22;8371;52.272;9.746;2022-12-20T15:09:17;13.60;74.40
16517;DHT22;8371;52.272;9.746;2022-12-20T15:11:44;13.60;74.50
16517;DHT22;8371;52.272;9.746;2022-12-20T15:14:35;13.60;74.50
16517;DHT22;8371;52.272;9.746;2022-12-20T15:17:03;13.50;74.60
16517;DHT22;8371;52.272;9.746;2022-12-20T15:19:30;13.50;74.60
16517;DHT22;8371;52.272;9.746;2022-12-20T15:21:56;13.50;74.60
16517;DHT22;8371;52.272;9.746;2022-12-20T15:24:24;13.40;74.60
16517;DHT22;8371;52.272;9.746;2022-12-20T15:26:51;13.40;74.70
16517;DHT22;8371;52.272;9.746;2022-12-20T15:29:22;13.40;74.70
16517;DHT22;8371;52.272;9.746;2022-12-20T15:31:50;13.40;74.80
16517;DHT22;8371;52.272;9.746;2022-12-20T15:34:22;13.30;74.70
16517;DHT22;8371;52.272;9.746;2022-12-20T15:36:46;13.40;74.90
16517;DHT22;8371;52.272;9.746;2022-12-20T15:39:11;13.30;75.00
16517;DHT22;8371;52.272;9.746;2022-12-20T15:41:40;13.30;75.00
16517;DHT22;8371;52.272;9.746;2022-12-20T15:44:10;13.30;75.00
16517;DHT22;8371;52.272;9.746;2022-12-20T15:46:36;13.30;75.10
16517;DHT22;8371;52.272;9.746;2022-12-20T15:49:02;13.30;75.10
16517;DHT22;8371;52.272;9.746;2022-12-20T15:51:33;13.30;75.10
16517;DHT22;8371;52.272;9.746;2022-12-20T15:54:01;13.20;75.10
16517;DHT22;8371;52.272;9.746;2022-12-20T15:59:15;13.20;75.20
16517;DHT22;8371;52.272;9.746;2022-12-20T16:01:41;13.30;75.20
16517;DHT22;8371;52.272;9.746;2022-12-20T16:04:16;13.20;75.20
16517;DHT22;8371;52.272;9.746;2022-12-20T16:06:43;13.20;75.20
16517;DHT22;8371;52.272;9.746;2022-12-20T16:09:09;13.20;75.20
16517;DHT22;8371;52.272;9.746;2022-12-20T16:11:35;13.20;75.20
16517;DHT22;8371;52.272;9.746;2022-12-20T16:14:01;13.20;75.20
16517;DHT22;8371;52.272;9.746;2022-12-20T16:16:30;13.20;75.20
16517;DHT22;8371;52.272;9.746;2022-12-20T16:18:56;13.20;75.20
16517;DHT22;8371;52.272;9.746;2022-12-20T16:21:25;13.20;75.20
16517;DHT22;8371;52.272;9.746;2022-12-20T16:23:51;13.20;75.30
16517;DHT22;8371;52.272;9.746;2022-12-20T16:26:20;13.30;75.30
16517;DHT22;8371;52.272;9.746;2022-12-20T16:28:47;13.30;75.30
16517;DHT22;8371;52.272;9.746;2022-12-20T16:31:32;13.30;75.20
16517;DHT22;8371;52.272;9.746;2022-12-20T16:33:59;13.30;75.30
16517;DHT22;8371;52.272;9.746;2022-12-20T16:36:25;13.30;75.20
16517;DHT22;8371;52.272;9.746;2022-12-20T16:38:52;13.20;75.10
16517;DHT22;8371;52.272;9.746;2022-12-20T16:41:21;13.30;75.20
16517;DHT22;8371;52.272;9.746;2022-12-20T16:43:48;13.30;75.20
16517;DHT22;8371;52.272;9.746;2022-12-20T16:46:17;13.20;75.20
16517;DHT22;8371;52.272;9.746;2022-12-20T16:48:43;13.20;75.20
16517;DHT22;8371;52.272;9.746;2022-12-20T16:51:30;13.20;75.30
16517;DHT22;8371;52.272;9.746;2022-12-20T16:53:58;13.20;75.30
16517;DHT22;8371;52.272;9.746;2022-12-20T16:56:25;13.20;75.30
16517;DHT22;8371;52.272;9.746;2022-12-20T16:58:51;13.20;75.40
16517;DHT22;8371;52.272;9.746;2022-12-20T17:01:19;13.20;75.40
16517;DHT22;8371;52.272;9.746;2022-12-20T17:03:46;13.10;75.20
16517;DHT22;8371;52.272;9.746;2022-12-20T17:06:13;13.10;75.40
16517;DHT22;8371;52.272;9.746;2022-12-20T17:08:39;13.10;75.50
16517;DHT22;8371;52.272;9.746;2022-12-20T17:13:45;13.00;75.50
16517;DHT22;8371;52.272;9.746;2022-12-20T17:16:12;13.00;75.60
16517;DHT22;8371;52.272;9.746;2022-12-20T17:18:44;13.00;75.70
16517;DHT22;8371;52.272;9.746;2022-12-20T17:21:40;13.00;75.80
16517;DHT22;8371;52.272;9.746;2022-12-20T17:24:05;13.00;76.00
16517;DHT22;8371;52.272;9.746;2022-12-20T17:26:34;12.90;76.70
16517;DHT22;8371;52.272;9.746;2022-12-20T17:28:59;12.80;76.00
16517;DHT22;8371;52.272;9.746;2022-12-20T17:31:45;12.80;76.30
16517;DHT22;8371;52.272;9.746;2022-12-20T17:34:17;12.80;76.30
16517;DHT22;8371;52.272;9.746;2022-12-20T17:36:44;12.70;76.30
16517;DHT22;8371;52.272;9.746;2022-12-20T17:39:10;12.70;76.40